sensor_id;sensor_type;location;lat;lon;timestamp;pressure;altitude;pressure_sealevel;temperature;humidity
46081;BME280;31821;51.880;-0.518;2022-10-14T00:05:52;100454.91;;;12.64;64.64
46081;BME280;31821;51.880;-0.518;2022-10-14T00:39:46;100341.22;;;11.93;64.21
46081;BME280;31821;51.880;-0.518;2022-10-14T00:42:54;100305.88;;;12.04;64.91
46081;BME280;31821;51.880;-0.518;2022-10-14T00:46:17;100316.59;;;11.74;65.17
46081;BME280;31821;51.880;-0.518;2022-10-14T00:49:38;100421.38;;;12.56;64.75
46081;BME280;31821;51.880;-0.518;2022-10-14T00:59:18;100252.97;;;11.88;63.18
46081;BME280;31821;51.880;-0.518;2022-10-14T02:04:17;100393.72;;;12.56;64.83
46081;BME280;31821;51.880;-0.518;2022-10-14T06:57:21;99940.19;;;12.86;63.78
46081;BME280;31821;51.880;-0.518;2022-10-14T06:59:54;100119.59;;;14.13;63.66
46081;BME280;31821;51.880;-0.518;2022-10-14T07:02:37;99828.06;;;12.29;62.19
46081;BME280;31821;51.880;-0.518;2022-10-14T07:10:53;99836.72;;;12.19;64.30
46081;BME280;31821;51.880;-0.518;2022-10-14T07:13:24;100114.72;;;14.31;62.79
46081;BME280;31821;51.880;-0.518;2022-10-14T07:16:00;99863.91;;;12.47;63.55
46081;BME280;31821;51.880;-0.518;2022-10-14T07:18:26;100014.00;;;13.85;62.32
46081;BME280;31821;51.880;-0.518;2022-10-14T07:20:53;99864.13;;;12.71;61.99
46081;BME280;31821;51.880;-0.518;2022-10-14T07:26:48;99850.38;;;12.84;61.21
46081;BME280;31821;51.880;-0.518;2022-10-14T07:30:06;99958.72;;;13.67;62.16
46081;BME280;31821;51.880;-0.518;2022-10-14T07:33:26;100110.53;;;14.46;62.19
46081;BME280;31821;51.880;-0.518;2022-10-14T07:36:10;100123.56;;;14.45;63.24
46081;BME280;31821;51.880;-0.518;2022-10-14T07:39:02;99891.97;;;12.96;62.29
46081;BME280;31821;51.880;-0.518;2022-10-14T07:42:06;99984.22;;;13.81;61.93
46081;BME280;31821;51.880;-0.518;2022-10-14T07:45:04;99850.13;;;12.98;62.36
46081;BME280;31821;51.880;-0.518;2022-10-14T07:47:47;99845.31;;;13.28;60.58
46081;BME280;31821;51.880;-0.518;2022-10-14T07:50:28;99988.63;;;14.16;60.23
46081;BME280;31821;51.880;-0.518;2022-10-14T07:53:08;100109.00;;;15.28;60.31
46081;BME280;31821;51.880;-0.518;2022-10-14T07:55:42;99843.81;;;13.73;60.08
46081;BME280;31821;51.880;-0.518;2022-10-14T07:58:46;99857.66;;;13.73;60.29
46081;BME280;31821;51.880;-0.518;2022-10-14T08:02:04;100134.25;;;15.35;60.15
46081;BME280;31821;51.880;-0.518;2022-10-14T08:04:40;99994.06;;;14.58;60.67
46081;BME280;31821;51.880;-0.518;2022-10-14T08:07:21;100062.59;;;15.04;61.02
46081;BME280;31821;51.880;-0.518;2022-10-14T08:10:15;100079.03;;;15.21;60.92
46081;BME280;31821;51.880;-0.518;2022-10-14T08:13:06;99962.88;;;14.28;61.38
46081;BME280;31821;51.880;-0.518;2022-10-14T08:15:36;99894.25;;;13.79;60.82
46081;BME280;31821;51.880;-0.518;2022-10-14T08:18:18;99879.03;;;13.85;61.22
46081;BME280;31821;51.880;-0.518;2022-10-14T08:38:43;100088.53;;;15.45;61.25
46081;BME280;31821;51.880;-0.518;2022-10-14T08:41:37;100161.13;;;15.93;60.90
46081;BME280;31821;51.880;-0.518;2022-10-14T08:44:19;100164.38;;;15.83;61.89
46081;BME280;31821;51.880;-0.518;2022-10-14T08:47:00;100097.91;;;15.65;60.94
46081;BME280;31821;51.880;-0.518;2022-10-14T08:57:19;100128.41;;;16.27;60.72
46081;BME280;31821;51.880;-0.518;2022-10-14T09:07:36;99833.03;;;14.55;60.59
46081;BME280;31821;51.880;-0.518;2022-10-14T09:10:14;100130.47;;;16.59;59.87
46081;BME280;31821;51.880;-0.518;2022-10-14T09:13:37;100107.66;;;16.25;61.09
46081;BME280;31821;51.880;-0.518;2022-10-14T09:20:17;99879.25;;;15.13;60.24
46081;BME280;31821;51.880;-0.518;2022-10-14T09:47:11;99943.75;;;15.88;59.33
46081;BME280;31821;51.880;-0.518;2022-10-14T09:49:45;99964.06;;;16.20;58.63
46081;BME280;31821;51.880;-0.518;2022-10-14T09:56:56;100097.53;;;17.37;58.50
46081;BME280;31821;51.880;-0.518;2022-10-14T10:03:47;100124.97;;;17.19;58.97
46081;BME280;31821;51.880;-0.518;2022-10-14T10:06:57;99983.69;;;16.56;58.58
46081;BME280;31821;51.880;-0.518;2022-10-14T10:09:56;100043.97;;;16.80;57.91
46081;BME280;31821;51.880;-0.518;2022-10-14T10:12:48;99810.31;;;15.59;58.66
46081;BME280;31821;51.880;-0.518;2022-10-14T10:15:26;99921.03;;;16.14;58.32
46081;BME280;31821;51.880;-0.518;2022-10-14T10:18:47;99918.88;;;16.23;58.20
46081;BME280;31821;51.880;-0.518;2022-10-14T10:25:44;99842.28;;;15.81;57.85
46081;BME280;31821;51.880;-0.518;2022-10-14T11:10:16;100053.09;;;17.61;58.49
46081;BME280;31821;51.880;-0.518;2022-10-14T11:43:50;100009.69;;;18.15;58.54
46081;BME280;31821;51.880;-0.518;2022-10-14T11:46:23;99820.72;;;16.74;58.20
46081;BME280;31821;51.880;-0.518;2022-10-14T11:49:04;99929.91;;;17.00;59.79
46081;BME280;31821;51.880;-0.518;2022-10-14T11:52:08;99894.56;;;17.20;59.17
46081;BME280;31821;51.880;-0.518;2022-10-14T11:54:46;99733.16;;;16.17;58.09
46081;BME280;31821;51.880;-0.518;2022-10-14T11:57:54;99886.63;;;17.02;58.74
46081;BME280;31821;51.880;-0.518;2022-10-14T12:00:59;100005.34;;;17.98;57.84
46081;BME280;31821;51.880;-0.518;2022-10-14T12:06:25;99858.16;;;17.48;57.68
46081;BME280;31821;51.880;-0.518;2022-10-14T12:09:00;99998.38;;;18.51;58.32
46081;BME280;31821;51.880;-0.518;2022-10-14T12:11:47;99939.09;;;17.36;58.85
46081;BME280;31821;51.880;-0.518;2022-10-14T12:14:23;100029.34;;;18.03;60.09
46081;BME280;31821;51.880;-0.518;2022-10-14T12:17:23;99869.44;;;17.36;58.71
46081;BME280;31821;51.880;-0.518;2022-10-14T12:19:53;99861.16;;;17.39;58.07
46081;BME280;31821;51.880;-0.518;2022-10-14T12:24:54;99846.03;;;17.21;57.82
46081;BME280;31821;51.880;-0.518;2022-10-14T12:27:25;99844.13;;;17.25;58.45
46081;BME280;31821;51.880;-0.518;2022-10-14T12:30:45;100018.09;;;18.38;58.62
46081;BME280;31821;51.880;-0.518;2022-10-14T12:33:30;99763.94;;;16.95;58.97
46081;BME280;31821;51.880;-0.518;2022-10-14T12:38:39;99808.00;;;17.09;59.65
46081;BME280;31821;51.880;-0.518;2022-10-14T12:48:54;99929.13;;;17.94;61.16
46081;BME280;31821;51.880;-0.518;2022-10-14T12:51:27;99682.00;;;16.57;60.16
46081;BME280;31821;51.880;-0.518;2022-10-14T12:54:11;99710.06;;;16.87;60.62
46081;BME280;31821;51.880;-0.518;2022-10-14T13:00:34;99871.50;;;17.59;58.59
46081;BME280;31821;51.880;-0.518;2022-10-14T13:04:09;99720.34;;;16.48;59.95
46081;BME280;31821;51.880;-0.518;2022-10-14T13:07:40;99813.78;;;17.00;57.63
46081;BME280;31821;51.880;-0.518;2022-10-14T13:24:51;99929.56;;;18.15;58.56
46081;BME280;31821;51.880;-0.518;2022-10-14T13:27:45;99653.59;;;16.48;57.67
46081;BME280;31821;51.880;-0.518;2022-10-14T13:32:58;99686.03;;;16.79;56.51
46081;BME280;31821;51.880;-0.518;2022-10-14T13:38:56;99689.19;;;16.58;58.20
46081;BME280;31821;51.880;-0.518;2022-10-14T13:41:38;99665.16;;;16.69;57.81
46081;BME280;31821;51.880;-0.518;2022-10-14T13:44:05;99917.63;;;18.38;57.65
46081;BME280;31821;51.880;-0.518;2022-10-14T13:46:54;99769.81;;;17.29;57.27
46081;BME280;31821;51.880;-0.518;2022-10-14T13:49:35;99850.91;;;17.87;57.27
46081;BME280;31821;51.880;-0.518;2022-10-14T13:52:26;99648.09;;;16.71;56.71
46081;BME280;31821;51.880;-0.518;2022-10-14T13:57:35;99660.31;;;17.05;56.28
46081;BME280;31821;51.880;-0.518;2022-10-14T14:00:02;99736.28;;;17.45;55.83
46081;BME280;31821;51.880;-0.518;2022-10-14T14:02:31;99671.09;;;16.87;56.29
46081;BME280;31821;51.880;-0.518;2022-10-14T14:05:02;99653.66;;;16.51;56.79
46081;BME280;31821;51.880;-0.518;2022-10-14T14:07:35;99775.31;;;17.06;57.64
46081;BME280;31821;51.880;-0.518;2022-10-14T14:10:08;99747.50;;;16.70;58.97
46081;BME280;31821;51.880;-0.518;2022-10-14T14:12:35;99784.03;;;17.24;58.25
46081;BME280;31821;51.880;-0.518;2022-10-14T14:15:25;99718.59;;;16.95;57.68
46081;BME280;31821;51.880;-0.518;2022-10-14T14:21:38;99893.34;;;17.76;58.74
46081;BME280;31821;51.880;-0.518;2022-10-14T14:24:22;99758.09;;;17.00;58.76
46081;BME280;31821;51.880;-0.518;2022-10-14T14:26:51;99885.41;;;17.78;57.81
46081;BME280;31821;51.880;-0.518;2022-10-14T14:29:20;99669.13;;;16.68;58.17
46081;BME280;31821;51.880;-0.518;2022-10-14T14:31:51;99760.72;;;17.32;57.23
46081;BME280;31821;51.880;-0.518;2022-10-14T14:34:21;99621.28;;;16.23;57.57
46081;BME280;31821;51.880;-0.518;2022-10-14T14:39:55;99590.84;;;16.50;57.86
46081;BME280;31821;51.880;-0.518;2022-10-14T14:42:27;99881.13;;;18.04;58.07
46081;BME280;31821;51.880;-0.518;2022-10-14T14:45:02;99577.66;;;16.08;58.24
46081;BME280;31821;51.880;-0.518;2022-10-14T14:47:46;99746.38;;;17.11;58.89
46081;BME280;31821;51.880;-0.518;2022-10-14T14:50:41;99742.16;;;17.20;59.30
46081;BME280;31821;51.880;-0.518;2022-10-14T14:53:15;99658.06;;;16.72;59.13
46081;BME280;31821;51.880;-0.518;2022-10-14T14:56:04;99644.91;;;16.13;59.92
46081;BME280;31821;51.880;-0.518;2022-10-14T15:01:25;99840.41;;;17.99;58.55
46081;BME280;31821;51.880;-0.518;2022-10-14T15:04:03;99736.31;;;17.06;59.94
46081;BME280;31821;51.880;-0.518;2022-10-14T15:06:33;99732.13;;;17.16;59.63
46081;BME280;31821;51.880;-0.518;2022-10-14T15:09:11;99679.66;;;16.59;60.25
46081;BME280;31821;51.880;-0.518;2022-10-14T15:11:53;99545.69;;;15.98;59.27
46081;BME280;31821;51.880;-0.518;2022-10-14T15:14:48;99833.13;;;17.95;59.03
46081;BME280;31821;51.880;-0.518;2022-10-14T15:17:38;99615.81;;;16.27;59.69
46081;BME280;31821;51.880;-0.518;2022-10-14T15:23:56;99843.16;;;17.76;60.46
46081;BME280;31821;51.880;-0.518;2022-10-14T15:25:57;99537.88;;;15.52;60.79
46081;BME280;31821;51.880;-0.518;2022-10-14T15:28:29;99750.00;;;17.15;59.99
46081;BME280;31821;51.880;-0.518;2022-10-14T15:30:59;99533.34;;;15.79;59.95
46081;BME280;31821;51.880;-0.518;2022-10-14T15:33:28;99595.28;;;16.15;60.46
46081;BME280;31821;51.880;-0.518;2022-10-14T15:36:02;99710.34;;;17.21;59.38
46081;BME280;31821;51.880;-0.518;2022-10-14T15:38:30;99764.09;;;17.65;60.07
46081;BME280;31821;51.880;-0.518;2022-10-14T15:40:55;99731.50;;;17.46;59.62
46081;BME280;31821;51.880;-0.518;2022-10-14T15:43:25;99557.91;;;16.13;61.15
46081;BME280;31821;51.880;-0.518;2022-10-14T15:46:02;99673.00;;;17.03;60.59
46081;BME280;31821;51.880;-0.518;2022-10-14T15:48:56;99755.22;;;17.16;60.67
46081;BME280;31821;51.880;-0.518;2022-10-14T15:51:24;99726.44;;;17.08;59.94
46081;BME280;31821;51.880;-0.518;2022-10-14T15:53:56;99731.41;;;16.99;60.88
46081;BME280;31821;51.880;-0.518;2022-10-14T15:56:23;99706.19;;;16.92;61.00
46081;BME280;31821;51.880;-0.518;2022-10-14T15:59:12;99780.44;;;17.23;60.84
46081;BME280;31821;51.880;-0.518;2022-10-14T16:01:41;99584.53;;;15.78;61.27
46081;BME280;31821;51.880;-0.518;2022-10-14T16:04:24;99587.50;;;15.86;60.72
46081;BME280;31821;51.880;-0.518;2022-10-14T16:06:55;99820.16;;;17.60;60.32
46081;BME280;31821;51.880;-0.518;2022-10-14T16:09:25;99645.25;;;16.48;60.11
46081;BME280;31821;51.880;-0.518;2022-10-14T16:11:53;99684.19;;;16.48;60.20
46081;BME280;31821;51.880;-0.518;2022-10-14T16:14:25;99697.53;;;16.77;60.72
46081;BME280;31821;51.880;-0.518;2022-10-14T16:16:59;99582.19;;;15.96;60.28
46081;BME280;31821;51.880;-0.518;2022-10-14T16:19:28;99561.06;;;15.76;60.00
46081;BME280;31821;51.880;-0.518;2022-10-14T16:21:55;99653.50;;;16.44;60.30
46081;BME280;31821;51.880;-0.518;2022-10-14T16:24:26;99644.28;;;16.40;60.51
46081;BME280;31821;51.880;-0.518;2022-10-14T16:27:04;99747.81;;;17.04;60.24
46081;BME280;31821;51.880;-0.518;2022-10-14T16:29:32;99639.00;;;16.15;61.90
46081;BME280;31821;51.880;-0.518;2022-10-14T16:32:00;99538.75;;;15.20;62.14
46081;BME280;31821;51.880;-0.518;2022-10-14T16:34:27;99746.78;;;16.38;62.44
46081;BME280;31821;51.880;-0.518;2022-10-14T16:36:55;99546.88;;;15.29;61.79
46081;BME280;31821;51.880;-0.518;2022-10-14T16:39:22;99683.06;;;16.33;61.82
46081;BME280;31821;51.880;-0.518;2022-10-14T16:41:50;99754.88;;;16.63;61.80
46081;BME280;31821;51.880;-0.518;2022-10-14T16:44:20;99527.97;;;15.19;61.59
46081;BME280;31821;51.880;-0.518;2022-10-14T16:46:53;99801.94;;;16.87;61.76
46081;BME280;31821;51.880;-0.518;2022-10-14T16:49:42;99542.94;;;15.14;61.60
46081;BME280;31821;51.880;-0.518;2022-10-14T16:52:10;99551.88;;;15.07;62.26
46081;BME280;31821;51.880;-0.518;2022-10-14T16:54:36;99697.84;;;16.17;62.01
46081;BME280;31821;51.880;-0.518;2022-10-14T16:57:03;99571.59;;;15.02;62.02
46081;BME280;31821;51.880;-0.518;2022-10-14T16:59:30;99676.97;;;15.91;62.54
46081;BME280;31821;51.880;-0.518;2022-10-14T17:01:56;99632.88;;;15.58;61.85
